createdAt,value
2022-12-18T00:02:37.130Z,0.51
2022-12-18T00:05:37.058Z,0.69
2022-12-18T00:08:36.976Z,0.64
2022-12-18T00:11:37.003Z,0.66
2022-12-18T00:14:36.971Z,0.6
2022-12-18T00:17:37.008Z,0.68
2022-12-18T00:20:37.026Z,0.97
2022-12-18T00:23:37.224Z,0.56
2022-12-18T00:26:36.956Z,0.69
2022-12-18T00:29:36.943Z,0.68
2022-12-18T00:32:36.940Z,0.8
2022-12-18T00:35:36.986Z,0.93
2022-12-18T00:38:37.017Z,0.69
2022-12-18T00:41:36.956Z,0.56
2022-12-18T00:44:36.933Z,0.68
2022-12-18T00:47:36.983Z,0.76
2022-12-18T00:50:36.933Z,0.83
2022-12-18T00:53:37.188Z,0.69
2022-12-18T00:56:39.340Z,0.84
2022-12-18T00:59:36.975Z,0.87
2022-12-18T01:02:37.066Z,0.54
2022-12-18T01:05:37.038Z,0.67
2022-12-18T01:08:37.110Z,0.87
2022-12-18T01:11:37.035Z,0.71
2022-12-18T01:14:36.999Z,1.06
2022-12-18T01:17:36.964Z,0.9
2022-12-18T01:20:36.948Z,0.94
2022-12-18T01:23:41.071Z,0.83
2022-12-18T01:26:37.043Z,0.53
2022-12-18T01:29:37.038Z,0.7
2022-12-18T01:32:37.023Z,0.67
2022-12-18T01:35:37.055Z,0.75
2022-12-18T01:38:37.001Z,0.98
2022-12-18T01:41:37.061Z,0.92
2022-12-18T01:44:37.092Z,1.56
2022-12-18T01:47:36.977Z,1.35
2022-12-18T01:50:37.000Z,1.03
2022-12-18T01:53:37.261Z,1.06
2022-12-18T01:56:37.007Z,0.93
2022-12-18T01:59:37.076Z,1.18
2022-12-18T02:02:37.062Z,0.98
2022-12-18T02:05:37.090Z,0.89
2022-12-18T02:08:37.063Z,1.17
2022-12-18T02:11:37.023Z,1.21
2022-12-18T02:14:37.077Z,0.96
2022-12-18T02:17:37.086Z,0.78
2022-12-18T02:20:37.010Z,1.2
2022-12-18T02:23:37.383Z,1.31
2022-12-18T02:26:37.111Z,0.84
2022-12-18T02:29:37.064Z,1.08
2022-12-18T02:32:37.140Z,1.27
2022-12-18T02:35:37.083Z,1.29
2022-12-18T02:38:37.058Z,1.37
2022-12-18T02:41:37.075Z,1.29
2022-12-18T02:44:37.084Z,0.88
2022-12-18T02:47:37.142Z,1.31
2022-12-18T02:50:37.075Z,1.23
2022-12-18T02:53:37.258Z,1.36
2022-12-18T02:56:37.023Z,1.29
2022-12-18T02:59:37.056Z,1.16
2022-12-18T03:02:37.172Z,1.38
2022-12-18T03:05:37.123Z,0.97
2022-12-18T03:08:37.056Z,0.96
2022-12-18T03:11:37.143Z,0.99
2022-12-18T03:14:37.043Z,1.11
2022-12-18T03:17:37.149Z,0.82
2022-12-18T03:20:37.144Z,1.04
2022-12-18T03:23:37.064Z,1.03
2022-12-18T03:26:37.132Z,1.34
2022-12-18T03:29:37.107Z,0.79
2022-12-18T03:32:37.135Z,0.8
2022-12-18T03:35:37.151Z,0.94
2022-12-18T03:38:37.142Z,0.91
2022-12-18T03:41:37.087Z,1.16
2022-12-18T03:44:37.158Z,0.75
2022-12-18T03:47:37.155Z,0.85
2022-12-18T03:50:37.168Z,0.89
2022-12-18T03:53:37.382Z,1.01
2022-12-18T03:56:37.122Z,0.92
2022-12-18T03:59:37.059Z,0.82
2022-12-18T04:02:37.180Z,1.12
2022-12-18T04:05:37.155Z,1.01
2022-12-18T04:08:37.183Z,1.08
2022-12-18T04:11:37.086Z,1.04
2022-12-18T04:14:37.204Z,1.15
2022-12-18T04:17:37.130Z,1.37
2022-12-18T04:20:37.154Z,1.21
2022-12-18T04:23:37.310Z,1.43
2022-12-18T04:26:37.093Z,1.33
2022-12-18T04:29:37.131Z,1.26
2022-12-18T04:32:37.175Z,1.2
2022-12-18T04:35:37.188Z,1.3
2022-12-18T04:38:37.164Z,1.27
2022-12-18T04:41:37.126Z,1.37
2022-12-18T04:44:37.248Z,1.23
2022-12-18T04:47:37.185Z,1.47
2022-12-18T04:50:37.209Z,1.19
2022-12-18T04:53:37.497Z,1.1
2022-12-18T04:56:37.215Z,1.26
2022-12-18T04:59:37.111Z,1.41
2022-12-18T05:02:37.193Z,1.4
2022-12-18T05:05:37.227Z,1.4
2022-12-18T05:08:37.227Z,1.11
2022-12-18T05:11:37.152Z,1.26
2022-12-18T05:14:37.188Z,1.45
2022-12-18T05:17:37.160Z,1.51
2022-12-18T05:20:37.139Z,1.21
2022-12-18T05:23:37.478Z,1.18
2022-12-18T05:26:37.214Z,1.53
2022-12-18T05:29:37.167Z,1.06
2022-12-18T05:32:37.220Z,1.33
2022-12-18T05:35:37.174Z,1.73
2022-12-18T05:38:37.288Z,1.33
2022-12-18T05:41:37.183Z,1.22
2022-12-18T05:44:37.161Z,1.56
2022-12-18T05:47:37.189Z,1.56
2022-12-18T05:50:37.163Z,1.51
2022-12-18T05:53:37.530Z,1.45
2022-12-18T05:56:37.196Z,1.17
2022-12-18T05:59:37.170Z,1.28
2022-12-18T06:02:37.217Z,1.41
2022-12-18T06:05:37.235Z,1.61
2022-12-18T06:08:40.317Z,1.33
2022-12-18T06:11:37.188Z,1.4
2022-12-18T06:14:37.247Z,1.3
2022-12-18T06:17:37.187Z,1.51
2022-12-18T06:20:37.275Z,1.22
2022-12-18T06:23:37.510Z,0.82
2022-12-18T06:26:37.276Z,1.05
2022-12-18T06:29:37.267Z,1.18
2022-12-18T06:32:37.195Z,1
2022-12-18T06:35:37.325Z,1.31
2022-12-18T06:38:37.433Z,1.18
2022-12-18T06:41:37.669Z,1.03
2022-12-18T06:44:37.309Z,0.91
2022-12-18T06:47:37.251Z,0.99
2022-12-18T06:50:37.231Z,1.74
2022-12-18T06:53:37.396Z,1.56
2022-12-18T06:56:37.348Z,1.28
2022-12-18T06:59:37.235Z,1.37
2022-12-18T07:02:37.347Z,1.75
2022-12-18T07:05:37.228Z,1.73
2022-12-18T07:08:37.317Z,0.86
2022-12-18T07:11:37.250Z,0.49
2022-12-18T07:14:37.268Z,0.8
2022-12-18T07:17:37.256Z,0.88
2022-12-18T07:20:37.245Z,0.52
2022-12-18T07:23:37.557Z,0.42
2022-12-18T07:26:37.320Z,0.37
2022-12-18T07:29:37.315Z,0.7
2022-12-18T07:32:37.285Z,0.45
2022-12-18T07:35:37.305Z,0.94
2022-12-18T07:38:37.285Z,0.62
2022-12-18T07:41:37.308Z,1.02
2022-12-18T07:44:37.278Z,0.59
2022-12-18T07:47:37.334Z,0.4
2022-12-18T07:50:37.295Z,0.74
2022-12-18T07:53:37.496Z,0.57
2022-12-18T07:56:37.385Z,0.88
2022-12-18T07:59:37.335Z,0.69
2022-12-18T08:02:37.336Z,0.6
2022-12-18T08:05:37.340Z,0.7
2022-12-18T08:08:37.292Z,0.74
2022-12-18T08:11:37.360Z,0.67
2022-12-18T08:14:37.283Z,0.85
2022-12-18T08:17:37.328Z,1.03
2022-12-18T08:20:37.379Z,2.08
2022-12-18T08:23:42.267Z,0.81
2022-12-18T08:26:37.288Z,0.61
2022-12-18T08:29:37.306Z,1.04
2022-12-18T08:32:37.368Z,1.01
2022-12-18T08:35:41.161Z,0.91
2022-12-18T08:38:37.328Z,1.17
2022-12-18T08:41:37.381Z,1.71
2022-12-18T08:44:37.390Z,1.05
2022-12-18T08:47:37.399Z,1.77
2022-12-18T08:50:37.366Z,1.11
2022-12-18T08:53:37.521Z,0.86
2022-12-18T08:56:37.405Z,0.94
2022-12-18T08:59:37.359Z,1.15
2022-12-18T09:02:37.529Z,0.79
2022-12-18T09:05:37.313Z,1.39
2022-12-18T09:08:37.477Z,1.41
2022-12-18T09:11:37.387Z,1.79
2022-12-18T09:14:37.428Z,1.09
2022-12-18T09:17:37.407Z,1.76
2022-12-18T09:20:37.427Z,1.73
2022-12-18T09:23:37.378Z,0.96
2022-12-18T09:26:37.365Z,1.22
2022-12-18T09:29:37.378Z,1.18
2022-12-18T09:32:37.437Z,1.09
2022-12-18T09:35:37.409Z,1.4
2022-12-18T09:38:37.576Z,1.1
2022-12-18T09:41:37.381Z,1.17
2022-12-18T09:44:43.139Z,1.06
2022-12-18T09:47:37.481Z,0.68
2022-12-18T09:50:37.421Z,1.43
2022-12-18T09:53:37.408Z,1.11
2022-12-18T09:56:37.426Z,1.19
2022-12-18T09:59:37.442Z,1.23
2022-12-18T10:02:37.435Z,1.76
2022-12-18T10:05:37.441Z,1.51
2022-12-18T10:08:37.529Z,1.07
2022-12-18T10:11:37.452Z,1.44
2022-12-18T10:14:37.439Z,1.27
2022-12-18T10:17:37.405Z,1.43
2022-12-18T10:20:37.491Z,1.52
2022-12-18T10:23:37.389Z,0.91
2022-12-18T10:26:37.480Z,1.31
2022-12-18T10:29:37.473Z,2.01
2022-12-18T10:32:37.447Z,1.18
2022-12-18T10:35:37.427Z,1.21
2022-12-18T10:38:37.631Z,1.61
2022-12-18T10:41:37.480Z,1.37
2022-12-18T10:44:37.491Z,1.62
2022-12-18T10:47:37.485Z,0.84
2022-12-18T10:51:08.930Z,0.99
2022-12-18T10:53:37.921Z,1.31
2022-12-18T10:56:37.424Z,1.34
2022-12-18T10:59:37.486Z,1.3
2022-12-18T11:02:37.692Z,1.54
2022-12-18T11:05:37.479Z,0.84
2022-12-18T11:08:37.657Z,1.37
2022-12-18T11:11:37.529Z,0.79
2022-12-18T11:14:39.937Z,1.31
2022-12-18T11:17:37.476Z,1.06
2022-12-18T11:20:37.614Z,1
2022-12-18T11:23:37.427Z,0.94
2022-12-18T11:26:37.621Z,0.97
2022-12-18T11:29:40.686Z,0.92
2022-12-18T11:32:37.609Z,1.07
2022-12-18T11:35:37.461Z,1.03
2022-12-18T11:38:37.701Z,1.01
2022-12-18T11:41:37.537Z,1.02
2022-12-18T11:44:37.467Z,1.01
2022-12-18T11:47:37.507Z,1.66
2022-12-18T11:50:37.463Z,2.15
2022-12-18T11:53:37.504Z,1.52
2022-12-18T11:56:37.569Z,1.15
2022-12-18T11:59:37.477Z,1.23
2022-12-18T12:02:37.542Z,1.06
2022-12-18T12:05:37.495Z,1.39
2022-12-18T12:08:37.560Z,1.4
2022-12-18T12:11:37.529Z,1.24
2022-12-18T12:14:37.494Z,1.2
2022-12-18T12:17:37.465Z,1.51
2022-12-18T12:20:37.496Z,1.41
2022-12-18T12:23:37.495Z,1.48
2022-12-18T12:26:37.562Z,1.41
2022-12-18T12:29:37.584Z,1.17
2022-12-18T12:32:37.590Z,1.48
2022-12-18T12:35:37.531Z,1.48
2022-12-18T12:38:37.484Z,1.09
2022-12-18T12:41:37.572Z,1.43
2022-12-18T12:44:37.495Z,1.51
2022-12-18T12:47:37.503Z,1.46
2022-12-18T12:50:37.538Z,1.17
2022-12-18T12:53:37.541Z,1.5
2022-12-18T12:56:37.571Z,1.3
2022-12-18T12:59:37.576Z,1.49
2022-12-18T13:02:37.680Z,1.48
2022-12-18T13:05:37.519Z,1.04
2022-12-18T13:08:37.527Z,1.33
2022-12-18T13:11:37.560Z,0.88
2022-12-18T13:14:37.519Z,1.45
2022-12-18T13:17:37.599Z,0.92
2022-12-18T13:20:37.602Z,1.46
2022-12-18T13:23:37.692Z,1.47
2022-12-18T13:26:37.691Z,0.89
2022-12-18T13:29:37.710Z,1.2
2022-12-18T13:32:37.558Z,1.83
2022-12-18T13:35:37.600Z,1.45
2022-12-18T13:38:37.575Z,1.12
2022-12-18T13:41:37.689Z,1.07
2022-12-18T13:44:40.796Z,1.25
2022-12-18T13:47:37.567Z,1.51
2022-12-18T13:50:37.648Z,1.51
2022-12-18T13:53:37.802Z,1.76
2022-12-18T13:59:37.629Z,1.24
2022-12-18T14:02:37.707Z,1.72
2022-12-18T14:05:37.747Z,1.97
2022-12-18T14:08:37.593Z,1.56
2022-12-18T14:11:37.753Z,1.42
2022-12-18T14:14:37.819Z,1.48
2022-12-18T14:17:37.626Z,1.39
2022-12-18T14:20:37.625Z,1.73
2022-12-18T14:23:37.820Z,1.09
2022-12-18T14:26:37.619Z,1.19
2022-12-18T14:29:37.592Z,1.25
2022-12-18T14:32:37.643Z,1.31
2022-12-18T14:35:37.658Z,1.54
2022-12-18T14:38:37.679Z,1.27
2022-12-18T14:41:37.915Z,1.29
2022-12-18T14:44:50.535Z,1.62
2022-12-18T14:47:37.615Z,0.99
2022-12-18T14:50:37.615Z,1.34
2022-12-18T14:53:37.803Z,1.28
2022-12-18T14:56:37.666Z,1.54
2022-12-18T14:59:37.683Z,1.44
2022-12-18T15:02:37.810Z,1.79
2022-12-18T15:05:37.633Z,1.2
2022-12-18T15:08:37.599Z,1.35
2022-12-18T15:11:37.684Z,1.29
2022-12-18T15:14:37.714Z,1.51
2022-12-18T15:17:37.639Z,1.88
2022-12-18T15:20:37.697Z,1.39
2022-12-18T15:23:37.661Z,1.19
2022-12-18T15:26:37.704Z,1.35
2022-12-18T15:29:37.675Z,0.63
2022-12-18T15:32:37.656Z,0.57
2022-12-18T15:35:39.404Z,1.27
2022-12-18T15:38:37.709Z,0.88
2022-12-18T15:41:37.653Z,0.71
2022-12-18T15:44:37.666Z,1.28
2022-12-18T15:47:37.673Z,1.23
2022-12-18T15:50:37.635Z,1.1
2022-12-18T15:53:37.819Z,1.05
2022-12-18T15:56:37.724Z,1.05
2022-12-18T15:59:37.678Z,1.24
2022-12-18T16:02:37.976Z,1
2022-12-18T16:05:37.648Z,1.38
2022-12-18T16:08:37.749Z,1.02
2022-12-18T16:11:37.673Z,1.06
2022-12-18T16:14:37.683Z,0.89
2022-12-18T16:17:37.726Z,1.2
2022-12-18T16:20:37.761Z,1.21
2022-12-18T16:23:37.820Z,1.32
2022-12-18T16:26:37.797Z,0.83
2022-12-18T16:29:37.805Z,0.97
2022-12-18T16:32:37.787Z,1.55
2022-12-18T16:35:37.808Z,0.91
2022-12-18T16:38:37.835Z,1.1
2022-12-18T16:41:37.766Z,1
2022-12-18T16:44:37.743Z,1.1
2022-12-18T16:47:37.867Z,1.32
2022-12-18T16:50:37.688Z,1.21
2022-12-18T16:53:37.917Z,0.83
2022-12-18T16:56:37.699Z,0.5
2022-12-18T16:59:37.716Z,0.87
2022-12-18T17:02:38.211Z,0.86
2022-12-18T17:05:37.791Z,1.05
2022-12-18T17:08:37.700Z,0.8
2022-12-18T17:11:37.730Z,0.91
2022-12-18T17:14:37.790Z,0.61
2022-12-18T17:17:37.735Z,0.91
2022-12-18T17:20:37.747Z,0.61
2022-12-18T17:23:37.924Z,0.96
2022-12-18T17:26:37.742Z,1.16
2022-12-18T17:29:41.247Z,0.83
2022-12-18T17:32:37.712Z,0.91
2022-12-18T17:35:37.810Z,1.01
2022-12-18T17:38:37.849Z,0.96
2022-12-18T17:41:37.817Z,1.06
2022-12-18T17:44:37.823Z,0.9
2022-12-18T17:47:37.808Z,1.01
2022-12-18T17:50:37.783Z,1.28
2022-12-18T17:53:38.136Z,0.88
2022-12-18T17:56:37.844Z,0.61
2022-12-18T17:59:37.788Z,0.48
2022-12-18T18:02:37.815Z,0.61
2022-12-18T18:05:37.846Z,0.54
2022-12-18T18:08:39.191Z,0.55
2022-12-18T18:11:37.812Z,0.46
2022-12-18T18:14:37.805Z,0.43
2022-12-18T18:17:37.768Z,0.47
2022-12-18T18:20:37.820Z,0.63
2022-12-18T18:23:37.933Z,0.54
2022-12-18T18:26:37.759Z,0.7
2022-12-18T18:29:37.878Z,0.68
2022-12-18T18:32:37.784Z,1.15
2022-12-18T18:35:53.631Z,1.27
2022-12-18T18:38:37.876Z,0.78
2022-12-18T18:41:37.842Z,1.39
2022-12-18T18:44:37.772Z,1.96
2022-12-18T18:47:37.849Z,1.42
2022-12-18T18:50:37.900Z,1.67
2022-12-18T18:53:37.889Z,1.64
2022-12-18T18:57:03.655Z,1.62
2022-12-18T18:59:37.867Z,1.46
2022-12-18T19:02:37.981Z,1.59
2022-12-18T19:05:39.821Z,1.78
2022-12-18T19:08:38.070Z,2.07
2022-12-18T19:11:37.880Z,2.08
2022-12-18T19:14:37.886Z,1.72
2022-12-18T19:17:37.878Z,2.11
2022-12-18T19:20:37.813Z,1.58
2022-12-18T19:23:37.914Z,1.45
2022-12-18T19:26:37.863Z,1.46
2022-12-18T19:29:37.921Z,1.49
2022-12-18T19:32:37.964Z,1.67
2022-12-18T19:35:37.799Z,1.55
2022-12-18T19:38:37.992Z,1.45
2022-12-18T19:41:37.843Z,1.7
2022-12-18T19:44:37.819Z,1.69
2022-12-18T19:47:37.950Z,1.23
2022-12-18T19:50:37.873Z,1.33
2022-12-18T19:53:37.887Z,1.51
2022-12-18T19:56:37.917Z,1.66
2022-12-18T19:59:37.842Z,1.12
2022-12-18T20:02:37.954Z,1.23
2022-12-18T20:05:37.919Z,1.67
2022-12-18T20:08:37.953Z,1.64
2022-12-18T20:11:41.718Z,1.66
2022-12-18T20:14:37.951Z,1.48
2022-12-18T20:17:37.967Z,1.83
2022-12-18T20:20:37.912Z,0.85
2022-12-18T20:23:38.009Z,1.55
2022-12-18T20:26:37.869Z,1.51
2022-12-18T20:29:40.339Z,1.72
2022-12-18T20:32:37.887Z,1.16
2022-12-18T20:35:37.965Z,1.42
2022-12-18T20:38:37.896Z,1.25
2022-12-18T20:41:39.061Z,1.4
2022-12-18T20:44:37.905Z,1.23
2022-12-18T20:47:37.883Z,1.1
2022-12-18T20:50:37.975Z,1.01
2022-12-18T20:53:38.584Z,1.78
2022-12-18T20:56:37.900Z,1.3
2022-12-18T20:59:39.184Z,1.57
2022-12-18T21:02:37.991Z,1.25
2022-12-18T21:05:37.985Z,1.35
2022-12-18T21:08:37.949Z,1.38
2022-12-18T21:11:37.980Z,1.59
2022-12-18T21:14:37.891Z,1.61
2022-12-18T21:17:38.136Z,2.15
2022-12-18T21:20:37.959Z,1.67
2022-12-18T21:23:37.984Z,1.35
2022-12-18T21:26:41.948Z,1.44
2022-12-18T21:29:37.913Z,1.54
2022-12-18T21:32:37.976Z,2.03
2022-12-18T21:35:37.916Z,1.58
2022-12-18T21:38:38.005Z,1.36
2022-12-18T21:41:42.026Z,0.93
2022-12-18T21:44:38.876Z,0.87
2022-12-18T21:47:38.020Z,1.01
2022-12-18T21:50:37.943Z,0.92
2022-12-18T21:53:37.951Z,1.25
2022-12-18T21:56:37.943Z,1.5
2022-12-18T21:59:38.013Z,1.99
2022-12-18T22:02:38.034Z,1.98
2022-12-18T22:05:37.971Z,1.24
2022-12-18T22:08:39.111Z,1.56
2022-12-18T22:11:37.959Z,1.75
2022-12-18T22:14:38.044Z,2.09
2022-12-18T22:17:38.061Z,1.54
2022-12-18T22:20:37.954Z,1.6
2022-12-18T22:23:38.050Z,1.19
2022-12-18T22:26:39.989Z,0.93
2022-12-18T22:29:38.058Z,1.06
2022-12-18T22:32:37.976Z,1.21
2022-12-18T22:35:38.047Z,1.09
2022-12-18T22:38:39.881Z,1.02
2022-12-18T22:41:38.059Z,0.86
2022-12-18T22:44:38.025Z,1.01
2022-12-18T22:47:37.999Z,1.06
2022-12-18T22:50:37.987Z,0.87
2022-12-18T22:53:37.984Z,0.91
2022-12-18T22:56:38.000Z,0.8
2022-12-18T22:59:38.011Z,0.65
2022-12-18T23:02:38.107Z,1.16
2022-12-18T23:05:38.064Z,0.71
2022-12-18T23:08:38.071Z,1.08
2022-12-18T23:11:38.066Z,0.75
2022-12-18T23:14:38.084Z,0.71
2022-12-18T23:17:38.009Z,0.75
2022-12-18T23:20:38.082Z,0.76
2022-12-18T23:23:38.105Z,0.86
2022-12-18T23:26:38.024Z,1.17
2022-12-18T23:29:38.014Z,0.96
2022-12-18T23:32:38.072Z,1.05
2022-12-18T23:35:38.008Z,0.81
2022-12-18T23:38:38.114Z,0.89
2022-12-18T23:41:38.087Z,1.19
2022-12-18T23:44:38.124Z,1.07
2022-12-18T23:47:38.091Z,0.8
2022-12-18T23:50:38.054Z,1.25
2022-12-18T23:53:38.047Z,1.09
2022-12-18T23:56:38.052Z,1.16
2022-12-18T23:59:38.030Z,0.79
